createdAt,value
2019-05-06T00:00:09.015Z,6.50
2019-05-06T00:01:08.975Z,6.40
2019-05-06T00:02:08.938Z,6.10
2019-05-06T00:03:08.891Z,6.00
2019-05-06T00:04:08.847Z,6.40
2019-05-06T00:05:08.804Z,6.60
2019-05-06T00:06:08.760Z,6.50
2019-05-06T00:07:08.718Z,7.00
2019-05-06T00:08:08.676Z,6.70
2019-05-06T00:09:08.635Z,6.20
2019-05-06T00:10:08.595Z,6.80
2019-05-06T00:11:08.550Z,6.20
2019-05-06T00:12:08.509Z,6.70
2019-05-06T00:13:08.467Z,6.60
2019-05-06T00:14:08.428Z,6.80
2019-05-06T00:15:08.384Z,6.60
2019-05-06T00:16:08.340Z,7.10
2019-05-06T00:17:08.300Z,6.60
2019-05-06T00:18:08.251Z,6.50
2019-05-06T00:19:08.210Z,6.90
2019-05-06T00:20:08.170Z,7.10
2019-05-06T00:21:08.131Z,7.10
2019-05-06T00:22:08.090Z,6.80
2019-05-06T00:23:08.048Z,6.80
2019-05-06T00:24:08.002Z,7.50
2019-05-06T00:25:07.961Z,6.50
2019-05-06T00:26:07.929Z,7.00
2019-05-06T00:27:07.881Z,6.80
2019-05-06T00:28:07.836Z,6.90
2019-05-06T00:29:07.790Z,6.80
2019-05-06T00:30:07.747Z,7.00
2019-05-06T00:31:12.867Z,7.10
2019-05-06T00:32:07.665Z,7.10
2019-05-06T00:33:07.626Z,7.00
2019-05-06T00:34:07.583Z,7.70
2019-05-06T00:35:07.540Z,8.00
2019-05-06T00:36:07.497Z,7.00
2019-05-06T00:37:07.456Z,7.10
2019-05-06T00:38:07.415Z,7.90
2019-05-06T00:39:07.367Z,7.50
2019-05-06T00:40:07.326Z,7.40
2019-05-06T00:41:07.285Z,8.10
2019-05-06T00:42:07.247Z,7.70
2019-05-06T00:43:07.198Z,7.20
2019-05-06T00:44:07.158Z,7.00
2019-05-06T00:45:07.119Z,7.80
2019-05-06T00:46:07.078Z,7.20
2019-05-06T00:47:07.039Z,7.80
2019-05-06T00:48:06.992Z,7.20
2019-05-06T00:49:06.951Z,7.90
2019-05-06T00:50:06.904Z,7.40
2019-05-06T00:51:06.862Z,8.00
2019-05-06T00:52:06.823Z,7.80
2019-05-06T00:53:06.784Z,7.80
2019-05-06T00:54:06.753Z,7.20
2019-05-06T00:55:06.699Z,8.10
2019-05-06T00:56:06.653Z,7.20
2019-05-06T00:57:06.610Z,7.70
2019-05-06T00:58:06.567Z,7.70
2019-05-06T00:59:06.533Z,7.80
2019-05-06T01:00:06.484Z,8.10
2019-05-06T01:01:06.440Z,8.00
2019-05-06T01:02:06.399Z,7.50
2019-05-06T01:03:06.355Z,7.50
2019-05-06T01:04:06.316Z,7.60
2019-05-06T01:05:06.280Z,7.20
2019-05-06T01:06:06.234Z,7.80
2019-05-06T01:07:06.193Z,7.70
2019-05-06T01:08:06.148Z,7.40
2019-05-06T01:09:06.103Z,8.10
2019-05-06T01:10:06.061Z,7.20
2019-05-06T01:11:06.019Z,7.00
2019-05-06T01:12:05.976Z,7.10
2019-05-06T01:13:05.937Z,7.10
2019-05-06T03:37:23.847Z,6.80
2019-05-06T03:38:22.941Z,6.80
2019-05-06T03:39:23.253Z,7.60
2019-05-06T03:40:23.025Z,8.30
2019-05-06T03:41:26.082Z,8.10
2019-05-06T03:42:23.127Z,8.40
2019-05-06T03:43:23.260Z,8.20
2019-05-06T03:44:23.923Z,8.40
2019-05-06T03:45:23.716Z,7.90
2019-05-06T03:46:23.232Z,8.20
2019-05-06T03:47:23.485Z,8.10
2019-05-06T03:48:23.810Z,7.70
2019-05-06T03:49:23.841Z,8.80
2019-05-06T03:50:23.816Z,7.40
2019-05-06T03:51:23.359Z,8.00
2019-05-06T03:52:23.216Z,7.80
2019-05-06T03:53:23.253Z,7.10
2019-05-06T03:54:23.206Z,7.30
2019-05-06T03:55:23.470Z,7.20
2019-05-06T03:56:23.625Z,7.10
2019-05-06T03:57:23.170Z,7.20
2019-05-06T03:58:26.330Z,7.80
2019-05-06T03:59:23.291Z,7.60
2019-05-06T04:00:23.635Z,7.30
2019-05-06T04:01:23.647Z,7.70
2019-05-06T04:02:23.740Z,7.80
2019-05-06T04:03:24.655Z,7.60
2019-05-06T04:04:23.244Z,7.60
2019-05-06T04:05:23.543Z,7.70
2019-05-06T04:06:23.870Z,8.50
2019-05-06T04:07:23.140Z,8.10
2019-05-06T04:08:23.973Z,8.40
2019-05-06T04:09:23.796Z,8.20
2019-05-06T04:10:22.789Z,8.30
2019-05-06T04:11:22.912Z,8.40
2019-05-06T04:12:23.138Z,8.80
2019-05-06T04:13:23.062Z,9.00
2019-05-06T04:14:20.395Z,9.00
2019-05-06T04:15:22.964Z,8.70
2019-05-06T04:16:22.837Z,9.20
2019-05-06T04:17:23.030Z,9.20
2019-05-06T04:18:20.223Z,9.00
2019-05-06T04:19:20.178Z,8.80
2019-05-06T04:20:23.387Z,8.70
2019-05-06T04:21:23.669Z,9.10
2019-05-06T04:22:20.055Z,9.60
2019-05-06T04:23:23.175Z,9.10
2019-05-06T04:24:22.750Z,9.70
2019-05-06T04:25:19.923Z,10.20
2019-05-06T04:26:19.880Z,8.80
2019-05-06T04:27:22.220Z,9.40
2019-05-06T04:28:19.799Z,9.10
2019-05-06T04:29:19.753Z,9.60
2019-05-06T04:30:19.709Z,9.40
2019-05-06T04:31:22.689Z,9.30
2019-05-06T04:32:19.623Z,9.20
2019-05-06T04:33:19.581Z,8.70
2019-05-06T04:34:19.870Z,8.90
2019-05-06T04:35:19.500Z,8.80
2019-05-06T04:36:19.458Z,9.00
2019-05-06T04:37:19.415Z,9.20
2019-05-06T04:38:19.370Z,8.70
2019-05-06T04:39:19.325Z,9.10
2019-05-06T04:40:19.283Z,8.80
2019-05-06T04:41:19.242Z,8.70
2019-05-06T04:42:19.201Z,8.70
2019-05-06T04:43:19.162Z,8.50
2019-05-06T04:44:19.113Z,7.80
2019-05-06T04:45:19.069Z,8.00
2019-05-06T04:46:19.028Z,7.80
2019-05-06T04:47:18.992Z,8.20
2019-05-06T04:48:18.950Z,7.90
2019-05-06T04:49:18.904Z,7.70
2019-05-06T04:50:18.859Z,7.60
2019-05-06T04:51:18.815Z,7.80
2019-05-06T04:52:18.774Z,7.70
2019-05-06T04:53:18.731Z,7.90
2019-05-06T04:54:18.689Z,7.50
2019-05-06T04:55:18.650Z,7.30
2019-05-06T04:56:18.608Z,7.60
2019-05-06T04:57:18.563Z,8.10
2019-05-06T04:58:18.520Z,8.60
2019-05-06T04:59:18.476Z,6.90
2019-05-06T05:00:18.438Z,7.40
2019-05-06T05:01:18.405Z,7.90
2019-05-06T05:02:18.386Z,7.40
2019-05-06T05:03:18.309Z,7.50
2019-05-06T05:04:27.779Z,7.50
2019-05-06T05:05:18.223Z,7.30
2019-05-06T05:06:18.183Z,7.40
2019-05-06T05:07:18.143Z,7.70
2019-05-06T05:08:18.103Z,7.20
2019-05-06T05:09:18.056Z,7.70
2019-05-06T05:10:18.013Z,7.60
2019-05-06T05:11:17.969Z,7.30
2019-05-06T05:12:17.935Z,7.70
2019-05-06T05:13:17.888Z,7.30
2019-05-06T05:14:21.718Z,7.80
2019-05-06T05:15:17.805Z,7.40
2019-05-06T05:16:17.758Z,7.40
2019-05-06T05:17:17.718Z,6.70
2019-05-06T05:18:17.678Z,7.70
2019-05-06T05:19:17.639Z,7.70
2019-05-06T05:20:17.602Z,7.70
2019-05-06T05:21:17.550Z,7.50
2019-05-06T05:22:17.508Z,7.50
2019-05-06T05:23:17.470Z,8.40
2019-05-06T05:24:17.421Z,8.40
2019-05-06T05:25:17.416Z,8.20
2019-05-06T05:26:17.342Z,8.80
2019-05-06T05:27:17.301Z,7.90
2019-05-06T05:28:17.260Z,8.50
2019-05-06T05:29:17.214Z,8.90
2019-05-06T05:30:17.172Z,8.20
2019-05-06T05:31:17.129Z,8.90
2019-05-06T05:32:17.093Z,8.50
2019-05-06T05:33:17.047Z,8.20
2019-05-06T05:34:17.003Z,9.00
2019-05-06T05:35:16.961Z,8.30
2019-05-06T05:36:16.918Z,8.10
2019-05-06T05:37:16.879Z,8.50
2019-05-06T05:38:16.839Z,8.60
2019-05-06T05:39:16.801Z,8.60
2019-05-06T05:40:16.760Z,8.80
2019-05-06T05:41:16.713Z,8.70
2019-05-06T05:42:16.671Z,8.20
2019-05-06T05:43:16.626Z,8.40
2019-05-06T05:44:16.584Z,9.00
2019-05-06T05:45:16.544Z,9.00
2019-05-06T05:46:16.502Z,8.70
2019-05-06T05:47:16.463Z,9.30
2019-05-06T05:48:16.422Z,8.70
2019-05-06T05:49:18.478Z,8.50
2019-05-06T05:50:16.338Z,8.70
2019-05-06T05:51:16.295Z,8.60
2019-05-06T05:52:16.255Z,9.10
2019-05-06T05:53:16.209Z,8.60
2019-05-06T05:54:16.167Z,8.90
2019-05-06T05:55:16.124Z,8.40
2019-05-06T05:56:16.081Z,8.70
2019-05-06T05:57:16.041Z,8.40
2019-05-06T05:58:16.002Z,8.30
2019-05-06T05:59:15.963Z,8.00
2019-05-06T06:00:15.923Z,8.00
2019-05-06T06:01:15.876Z,7.70
2019-05-06T06:02:15.833Z,7.50
2019-05-06T06:03:15.790Z,7.80
2019-05-06T06:04:15.755Z,8.10
2019-05-06T06:05:15.710Z,8.30
2019-05-06T06:06:15.666Z,8.10
2019-05-06T06:07:15.624Z,8.00
2019-05-06T06:08:15.581Z,9.40
2019-05-06T06:09:15.541Z,9.10
2019-05-06T06:10:15.502Z,9.70
2019-05-06T06:11:15.462Z,9.70
2019-05-06T06:12:15.422Z,9.10
2019-05-06T06:13:15.377Z,8.20
2019-05-06T06:14:15.335Z,8.60
2019-05-06T06:15:15.317Z,9.00
2019-05-06T06:16:15.251Z,8.30
2019-05-06T06:17:15.212Z,7.80
2019-05-06T06:18:15.169Z,7.90
2019-05-06T06:19:15.131Z,8.30
2019-05-06T06:20:15.104Z,8.50
2019-05-06T06:21:21.955Z,8.40
2019-05-06T06:22:15.004Z,8.40
2019-05-06T06:23:14.988Z,8.10
2019-05-06T06:24:14.923Z,8.00
2019-05-06T06:25:14.880Z,7.90
2019-05-06T06:26:14.836Z,7.40
2019-05-06T06:27:14.795Z,8.20
2019-05-06T06:28:14.753Z,8.80
2019-05-06T06:29:14.711Z,8.90
2019-05-06T06:30:14.673Z,8.00
2019-05-06T06:31:14.633Z,8.70
2019-05-06T06:32:14.592Z,8.60
2019-05-06T06:33:14.548Z,8.60
2019-05-06T06:34:14.506Z,9.00
2019-05-06T06:35:14.677Z,9.40
2019-05-06T06:36:14.425Z,8.60
2019-05-06T06:37:14.385Z,7.70
2019-05-06T06:38:14.341Z,8.00
2019-05-06T06:39:14.299Z,8.20
2019-05-06T06:40:14.257Z,8.40
2019-05-06T06:41:14.217Z,7.40
2019-05-06T06:42:14.178Z,8.20
2019-05-06T06:43:14.139Z,8.00
2019-05-06T06:44:14.098Z,7.70
2019-05-06T06:45:14.054Z,7.10
2019-05-06T06:46:14.012Z,7.20
2019-05-06T06:47:13.969Z,7.20
2019-05-06T06:48:13.931Z,8.10
2019-05-06T06:49:13.888Z,6.50
2019-05-06T06:50:13.850Z,6.50
2019-05-06T06:51:13.819Z,6.60
2019-05-06T06:52:14.952Z,6.90
2019-05-06T06:53:13.725Z,7.10
2019-05-06T06:54:13.685Z,7.00
2019-05-06T06:55:13.646Z,7.20
2019-05-06T06:56:13.606Z,7.00
2019-05-06T06:57:13.567Z,6.70
2019-05-06T06:58:13.522Z,7.00
2019-05-06T06:59:13.479Z,7.10
2019-05-06T07:00:13.437Z,6.90
2019-05-06T07:01:13.398Z,6.60
2019-05-06T07:02:13.380Z,5.30
2019-05-06T07:03:13.320Z,5.70
2019-05-06T07:04:13.563Z,5.90
2019-05-06T07:05:24.335Z,5.70
2019-05-06T07:06:13.194Z,6.50
2019-05-06T07:07:13.225Z,5.50
2019-05-06T07:08:13.115Z,5.20
2019-05-06T07:09:13.073Z,4.90
2019-05-06T07:10:13.028Z,5.30
2019-05-06T07:11:13.105Z,5.70
2019-05-06T07:12:13.286Z,5.00
2019-05-06T07:13:12.908Z,4.90
2019-05-06T07:14:22.592Z,4.90
2019-05-06T07:16:17.283Z,5.00
2019-05-06T07:17:17.217Z,4.90
2019-05-06T07:18:17.171Z,5.10
2019-05-06T07:19:17.135Z,4.90
2019-05-06T07:20:17.097Z,5.10
2019-05-06T07:21:17.053Z,5.00
2019-05-06T07:22:17.019Z,4.60
2019-05-06T07:23:16.975Z,4.70
2019-05-06T07:24:16.927Z,4.40
2019-05-06T07:25:16.885Z,5.00
2019-05-06T07:26:16.846Z,5.00
2019-05-06T07:27:16.806Z,4.60
2019-05-06T07:28:16.772Z,4.80
2019-05-06T07:29:23.489Z,5.10
2019-05-06T07:30:16.687Z,5.10
2019-05-06T07:31:22.377Z,4.70
2019-05-06T07:32:16.603Z,4.60
2019-05-06T07:33:16.561Z,4.60
2019-05-06T07:34:16.524Z,4.50
2019-05-06T07:35:16.482Z,3.80
2019-05-06T07:36:16.443Z,4.50
2019-05-06T07:37:16.396Z,4.60
2019-05-06T07:38:16.357Z,3.90
2019-05-06T07:39:16.320Z,3.60
2019-05-06T07:40:16.278Z,3.90
2019-05-06T07:41:16.243Z,3.90
2019-05-06T07:42:16.198Z,4.00
2019-05-06T07:43:16.156Z,4.20
2019-05-06T07:44:16.115Z,4.30
2019-05-06T07:45:16.071Z,4.50
2019-05-06T07:46:16.036Z,4.40
2019-05-06T07:47:16.003Z,4.30
2019-05-06T07:48:15.953Z,4.00
2019-05-06T07:49:15.913Z,4.00
2019-05-06T07:50:15.869Z,4.10
2019-05-06T07:51:15.827Z,3.90
2019-05-06T07:52:17.305Z,4.20
2019-05-06T07:53:15.749Z,4.40
2019-05-06T07:54:15.713Z,3.90
2019-05-06T07:55:15.667Z,3.60
2019-05-06T07:56:15.624Z,3.80
2019-05-06T07:57:15.580Z,4.50
2019-05-06T07:58:15.540Z,4.20
2019-05-06T07:59:15.500Z,4.10
2019-05-06T08:00:15.462Z,4.00
2019-05-06T08:01:15.423Z,4.40
2019-05-06T08:02:15.382Z,4.20
2019-05-06T08:03:15.338Z,4.30
2019-05-06T08:04:15.296Z,4.50
2019-05-06T08:05:15.254Z,4.60
2019-05-06T08:06:15.218Z,4.20
2019-05-06T08:07:15.175Z,4.20
2019-05-06T08:08:15.133Z,4.70
2019-05-06T08:09:15.089Z,4.40
2019-05-06T08:10:15.051Z,4.10
2019-05-06T08:11:15.009Z,4.20
2019-05-06T08:12:14.970Z,4.00
2019-05-06T08:13:14.930Z,4.60
2019-05-06T08:14:14.891Z,4.40
2019-05-06T08:15:14.860Z,4.20
2019-05-06T08:16:14.804Z,4.50
2019-05-06T08:17:14.763Z,4.20
2019-05-06T08:18:14.721Z,4.30
2019-05-06T08:19:14.681Z,4.50
2019-05-06T08:20:14.642Z,4.60
2019-05-06T08:21:14.602Z,4.50
2019-05-06T08:22:14.556Z,3.80
2019-05-06T08:23:14.518Z,4.70
2019-05-06T08:24:14.478Z,4.70
2019-05-06T08:25:14.445Z,5.30
2019-05-06T08:26:17.559Z,4.50
2019-05-06T08:27:14.355Z,5.10
2019-05-06T08:28:14.314Z,5.20
2019-05-06T08:29:15.919Z,4.80
2019-05-06T08:30:14.265Z,5.00
2019-05-06T08:31:14.190Z,4.90
2019-05-06T08:32:14.156Z,4.20
2019-05-06T08:33:14.110Z,4.70
2019-05-06T08:34:14.073Z,4.60
2019-05-06T08:35:14.045Z,4.70
2019-05-06T08:36:15.006Z,4.20
2019-05-06T08:37:13.944Z,4.50
2019-05-06T08:38:13.906Z,4.70
2019-05-06T08:39:13.865Z,4.80
2019-05-06T08:40:13.823Z,4.70
2019-05-06T08:41:13.778Z,4.30
2019-05-06T08:42:13.743Z,4.30
2019-05-06T08:43:13.699Z,4.80
2019-05-06T08:44:13.660Z,4.30
2019-05-06T08:45:13.621Z,4.90
2019-05-06T08:46:13.579Z,4.70
2019-05-06T08:47:13.540Z,5.40
2019-05-06T08:48:13.496Z,5.10
2019-05-06T08:49:13.455Z,4.60
2019-05-06T08:50:13.415Z,4.80
2019-05-06T08:51:13.373Z,4.90
2019-05-06T08:52:13.338Z,4.20
2019-05-06T08:53:13.841Z,4.10
2019-05-06T08:54:13.434Z,4.00
2019-05-06T08:55:13.212Z,4.00
2019-05-06T08:56:16.157Z,4.20
2019-05-06T08:57:13.135Z,4.50
2019-05-06T08:58:13.966Z,4.60
2019-05-06T08:59:13.996Z,4.50
2019-05-06T09:00:13.012Z,4.80
2019-05-06T09:01:12.971Z,4.20
2019-05-06T09:02:13.765Z,4.20
2019-05-06T09:03:14.255Z,4.70
2019-05-06T09:04:15.965Z,4.50
2019-05-06T09:05:12.812Z,5.20
2019-05-06T09:06:26.561Z,4.80
2019-05-06T09:07:12.733Z,5.00
2019-05-06T09:08:13.743Z,5.00
2019-05-06T09:09:12.984Z,4.80
2019-05-06T09:10:13.177Z,4.90
2019-05-06T09:11:12.572Z,5.30
2019-05-06T09:12:13.067Z,5.20
2019-05-06T09:13:12.487Z,4.80
2019-05-06T09:14:13.656Z,4.90
2019-05-06T09:15:12.646Z,4.80
2019-05-06T09:16:13.015Z,4.90
2019-05-06T09:17:12.331Z,5.00
2019-05-06T09:18:12.478Z,4.70
2019-05-06T09:19:12.805Z,4.80
2019-05-06T09:20:13.006Z,5.20
2019-05-06T09:21:12.374Z,5.20
2019-05-06T09:22:12.912Z,4.80
2019-05-06T09:23:12.410Z,5.00
2019-05-06T09:24:12.807Z,5.30
2019-05-06T09:25:12.846Z,4.90
2019-05-06T09:26:12.913Z,5.40
2019-05-06T09:27:12.273Z,5.30
2019-05-06T09:28:13.158Z,5.00
2019-05-06T09:29:12.816Z,5.20
2019-05-06T09:30:13.178Z,5.20
2019-05-06T09:31:12.620Z,5.30
2019-05-06T09:32:13.777Z,5.10
2019-05-06T09:33:12.895Z,5.70
2019-05-06T09:34:13.012Z,6.30
2019-05-06T09:35:13.064Z,5.10
2019-05-06T09:36:12.728Z,5.10
2019-05-06T09:37:13.476Z,5.00
2019-05-06T09:50:55.617Z,5.10
2019-05-06T09:51:55.544Z,5.50
2019-05-06T09:52:55.496Z,5.20
2019-05-06T09:53:55.459Z,5.90
2019-05-06T09:54:55.414Z,5.60
2019-05-06T09:55:55.370Z,5.60
2019-05-06T09:56:55.331Z,5.60
2019-05-06T09:57:55.285Z,5.10
2019-05-06T09:58:55.257Z,5.30
2019-05-06T09:59:55.196Z,5.20
2019-05-06T10:00:55.159Z,5.20
2019-05-06T10:01:55.120Z,5.50
2019-05-06T10:02:55.071Z,5.70
2019-05-06T10:03:55.052Z,5.50
2019-05-06T10:04:54.988Z,6.40
2019-05-06T10:05:54.948Z,6.80
2019-05-06T10:06:59.804Z,6.10
2019-05-06T10:07:54.870Z,6.40
2019-05-06T10:08:54.834Z,6.80
2019-05-06T10:09:54.791Z,6.00
2019-05-06T10:10:59.482Z,6.50
2019-05-06T10:11:54.702Z,6.10
2019-05-06T10:12:54.661Z,6.40
2019-05-06T10:13:54.623Z,6.90
2019-05-06T10:14:54.583Z,6.40
2019-05-06T10:15:57.528Z,6.10
2019-05-06T10:16:54.497Z,6.20
2019-05-06T10:17:54.462Z,6.10
2019-05-06T10:18:54.429Z,6.40
2019-05-06T10:19:54.381Z,6.70
2019-05-06T10:20:54.340Z,6.20
2019-05-06T10:21:54.303Z,5.40
2019-05-06T10:22:54.255Z,5.40
2019-05-06T10:23:54.215Z,5.40
2019-05-06T10:24:54.175Z,4.70
2019-05-06T10:25:54.136Z,5.10
2019-05-06T10:26:54.097Z,5.10
2019-05-06T10:27:57.002Z,5.70
2019-05-06T10:28:54.018Z,5.70
2019-05-06T10:29:53.975Z,5.60
2019-05-06T10:30:53.947Z,5.00
2019-05-06T10:31:53.898Z,5.60
2019-05-06T10:32:53.857Z,5.40
2019-05-06T10:33:53.816Z,5.40
2019-05-06T10:34:53.774Z,5.40
2019-05-06T10:35:53.738Z,6.20
2019-05-06T10:36:53.688Z,5.50
2019-05-06T10:37:53.654Z,6.30
2019-05-06T10:38:53.618Z,6.10
2019-05-06T10:39:53.576Z,6.40
2019-05-06T10:41:02.844Z,6.50
2019-05-06T10:41:53.495Z,5.40
2019-05-06T10:42:53.450Z,5.80
2019-05-06T10:43:53.409Z,5.30
2019-05-06T10:44:53.380Z,5.70
2019-05-06T10:45:53.330Z,4.90
2019-05-06T10:46:53.323Z,5.30
2019-05-06T10:47:53.848Z,5.50
2019-05-06T10:48:53.225Z,5.10
2019-05-06T10:49:53.169Z,5.00
2019-05-06T10:50:53.131Z,5.60
2019-05-06T10:51:53.120Z,5.20
2019-05-06T10:52:53.052Z,5.40
2019-05-06T10:53:53.011Z,5.10
2019-05-06T10:54:52.970Z,5.20
2019-05-06T10:55:53.612Z,5.20
2019-05-06T10:56:57.078Z,5.30
2019-05-06T10:57:53.203Z,5.60
2019-05-06T10:58:52.913Z,5.00
2019-05-06T10:59:52.772Z,5.50
2019-05-06T11:00:52.955Z,5.20
2019-05-06T11:01:52.691Z,5.00
2019-05-06T11:02:52.648Z,4.80
2019-05-06T11:03:52.608Z,4.50
2019-05-06T11:04:52.991Z,5.00
2019-05-06T11:05:53.374Z,4.70
2019-05-06T11:06:52.660Z,5.40
2019-05-06T11:07:52.447Z,4.90
2019-05-06T11:08:52.596Z,5.20
2019-05-06T11:09:53.250Z,5.00
2019-05-06T11:10:53.528Z,4.80
2019-05-06T11:11:52.297Z,4.90
2019-05-06T11:12:52.384Z,5.00
2019-05-06T11:13:52.351Z,5.00
2019-05-06T11:14:53.158Z,4.80
2019-05-06T11:15:52.863Z,6.80
2019-05-06T11:16:52.090Z,6.60
2019-05-06T11:17:52.052Z,5.60
2019-05-06T11:18:53.494Z,6.30
2019-05-06T11:19:53.302Z,5.70
2019-05-06T11:20:52.987Z,6.60
2019-05-06T11:21:53.186Z,5.70
2019-05-06T11:22:52.825Z,5.40
2019-05-06T11:23:52.706Z,5.00
2019-05-06T11:24:51.780Z,5.70
2019-05-06T11:25:52.575Z,5.90
2019-05-06T11:26:53.345Z,6.60
2019-05-06T11:27:52.660Z,5.80
2019-05-06T11:28:52.082Z,6.40
2019-05-06T11:29:53.056Z,6.00
2019-05-06T11:30:52.986Z,6.10
2019-05-06T11:31:54.212Z,5.50
2019-05-06T11:32:54.461Z,5.30
2019-05-06T11:33:52.590Z,5.00
2019-05-06T11:34:52.611Z,5.20
2019-05-06T11:35:52.748Z,5.50
2019-05-06T11:36:52.445Z,5.10
2019-05-06T11:37:54.119Z,5.10
2019-05-06T11:38:52.266Z,5.80
2019-05-06T11:39:52.864Z,5.40
2019-05-06T11:40:52.835Z,5.00
2019-05-06T11:42:06.384Z,5.30
2019-05-06T11:42:52.513Z,5.50
2019-05-06T11:43:52.195Z,5.90
2019-05-06T11:44:52.888Z,5.40
2019-05-06T11:45:52.147Z,6.30
2019-05-06T11:46:52.319Z,6.70
2019-05-06T11:47:50.865Z,6.30
2019-05-06T11:48:52.303Z,6.30
2019-05-06T11:49:55.361Z,6.40
2019-05-06T11:50:50.751Z,6.30
2019-05-06T11:51:50.714Z,6.00
2019-05-06T11:52:53.084Z,6.10
2019-05-06T11:53:53.812Z,5.60
2019-05-06T11:54:52.690Z,6.00
2019-05-06T11:55:54.353Z,6.50
2019-05-06T11:56:55.121Z,6.30
2019-05-06T11:57:52.826Z,7.30
2019-05-06T11:58:52.889Z,7.50
2019-05-06T11:59:52.587Z,7.80
2019-05-06T12:00:52.581Z,6.40
2019-05-06T12:01:53.168Z,10.00
2019-05-06T12:02:50.282Z,9.20
2019-05-06T12:03:52.043Z,8.50
2019-05-06T12:04:52.327Z,6.50
2019-05-06T12:05:50.163Z,6.20
2019-05-06T12:06:52.424Z,6.80
2019-05-06T12:08:01.826Z,7.00
2019-05-06T12:08:52.259Z,6.10
2019-05-06T12:09:50.018Z,7.00
2019-05-06T12:10:51.539Z,9.20
2019-05-06T12:11:52.552Z,9.10
2019-05-06T12:12:49.885Z,7.70
2019-05-06T12:13:49.848Z,8.20
2019-05-06T12:14:52.476Z,7.50
2019-05-06T12:15:49.774Z,9.20
2019-05-06T12:16:49.740Z,8.60
2019-05-06T12:17:49.693Z,8.10
2019-05-06T12:18:49.651Z,8.00
2019-05-06T12:19:49.611Z,8.10
2019-05-06T12:20:49.573Z,8.90
2019-05-06T12:21:49.533Z,8.40
2019-05-06T12:22:49.498Z,8.50
2019-05-06T12:23:49.462Z,8.60
2019-05-06T12:24:49.416Z,8.70
2019-05-06T12:25:49.383Z,8.10
2019-05-06T12:26:49.338Z,7.40
2019-05-06T12:27:49.302Z,7.20
2019-05-06T12:28:49.263Z,7.40
2019-05-06T12:29:49.221Z,7.80
2019-05-06T12:30:49.179Z,7.30
2019-05-06T12:31:49.138Z,6.60
2019-05-06T12:32:49.099Z,7.60
2019-05-06T12:33:49.064Z,7.60
2019-05-06T12:34:49.025Z,7.10
2019-05-06T12:35:48.989Z,7.40
2019-05-06T12:36:48.948Z,7.70
2019-05-06T12:37:48.915Z,7.10
2019-05-06T12:38:48.868Z,7.10
2019-05-06T12:39:48.826Z,6.60
2019-05-06T12:40:48.789Z,6.60
2019-05-06T12:41:48.749Z,6.60
2019-05-06T12:42:48.707Z,6.70
2019-05-06T12:43:48.668Z,6.80
2019-05-06T12:44:48.627Z,6.90
2019-05-06T12:45:48.589Z,6.20
2019-05-06T12:46:48.555Z,6.30
2019-05-06T12:47:48.513Z,6.60
2019-05-06T12:48:48.474Z,6.30
2019-05-06T12:49:48.432Z,6.40
2019-05-06T12:50:48.398Z,6.70
2019-05-06T12:51:48.351Z,6.60
2019-05-06T12:52:48.312Z,6.70
2019-05-06T12:53:48.272Z,6.50
2019-05-06T12:54:48.245Z,6.50
2019-05-06T12:55:48.197Z,6.10
2019-05-06T12:56:48.150Z,6.00
2019-05-06T12:57:48.118Z,5.50
2019-05-06T12:58:48.074Z,5.80
2019-05-06T12:59:48.038Z,6.40
2019-05-06T13:00:48.000Z,5.90
2019-05-06T13:01:47.957Z,6.00
2019-05-06T13:02:47.917Z,6.00
2019-05-06T13:03:47.877Z,6.30
2019-05-06T13:04:56.047Z,6.00
2019-05-06T13:05:47.797Z,6.00
2019-05-06T13:06:47.757Z,6.60
2019-05-06T13:07:47.721Z,6.60
2019-05-06T13:08:58.568Z,6.20
2019-05-06T13:09:47.650Z,6.70
2019-05-06T13:10:47.598Z,6.20
2019-05-06T13:11:47.558Z,7.00
2019-05-06T13:12:47.521Z,6.30
2019-05-06T13:13:57.566Z,6.20
2019-05-06T13:14:48.260Z,6.00
2019-05-06T13:15:47.398Z,6.30
2019-05-06T13:16:47.364Z,6.80
2019-05-06T13:17:47.321Z,6.40
2019-05-06T13:18:48.665Z,6.30
2019-05-06T13:19:47.300Z,6.30
2019-05-06T13:20:50.573Z,6.10
2019-05-06T13:21:47.185Z,6.30
2019-05-06T13:22:47.181Z,6.10
2019-05-06T13:23:47.147Z,6.40
2019-05-06T13:24:47.087Z,6.20
2019-05-06T13:25:47.046Z,5.90
2019-05-06T13:26:46.977Z,6.60
2019-05-06T13:27:47.094Z,6.00
2019-05-06T13:28:46.882Z,5.80
2019-05-06T13:29:46.866Z,6.30
2019-05-06T13:30:46.807Z,6.50
2019-05-06T13:31:47.731Z,6.40
2019-05-06T13:32:49.284Z,6.40
2019-05-06T13:33:49.502Z,6.30
2019-05-06T13:34:46.699Z,6.30
2019-05-06T13:35:46.877Z,6.20
2019-05-06T13:36:46.729Z,6.30
2019-05-06T13:37:46.529Z,6.10
2019-05-06T13:38:46.501Z,6.30
2019-05-06T13:39:46.481Z,6.40
2019-05-06T13:40:53.816Z,6.00
2019-05-06T13:41:46.375Z,6.20
2019-05-06T13:42:46.377Z,6.10
2019-05-06T13:43:46.361Z,5.90
2019-05-06T13:44:46.264Z,5.30
2019-05-06T13:45:46.307Z,6.20
2019-05-06T13:46:46.198Z,6.20
2019-05-06T13:47:46.220Z,5.90
2019-05-06T13:48:46.093Z,6.30
2019-05-06T13:49:46.078Z,6.00
2019-05-06T13:50:46.029Z,6.00
2019-05-06T13:51:52.776Z,5.70
2019-05-06T13:52:48.210Z,5.90
2019-05-06T13:53:46.410Z,5.80
2019-05-06T13:54:45.932Z,6.20
2019-05-06T13:55:45.851Z,6.20
2019-05-06T13:56:48.782Z,5.80
2019-05-06T13:57:45.746Z,6.00
2019-05-06T13:58:45.836Z,6.20
2019-05-06T13:59:45.697Z,6.10
2019-05-06T14:00:45.673Z,5.60
2019-05-06T14:01:45.679Z,6.20
2019-05-06T14:02:45.643Z,5.80
2019-05-06T14:03:45.580Z,6.10
2019-05-06T14:04:45.473Z,5.70
2019-05-06T14:05:46.426Z,6.30
2019-05-06T14:06:45.414Z,6.30
2019-05-06T14:07:45.694Z,5.80
2019-05-06T14:08:45.328Z,5.90
2019-05-06T14:09:45.277Z,5.70
2019-05-06T14:10:56.474Z,6.20
2019-05-06T14:11:45.198Z,5.80
2019-05-06T14:12:45.169Z,5.70
2019-05-06T14:13:45.124Z,5.80
2019-05-06T14:14:45.086Z,6.10
2019-05-06T14:15:45.053Z,5.50
2019-05-06T14:16:45.007Z,6.10
2019-05-06T14:17:44.968Z,5.70
2019-05-06T14:18:44.939Z,5.80
2019-05-06T14:19:44.896Z,5.70
2019-05-06T14:20:44.841Z,6.10
2019-05-06T14:21:44.805Z,6.10
2019-05-06T14:22:44.782Z,6.00
2019-05-06T14:23:44.755Z,6.10
2019-05-06T14:24:44.695Z,5.90
2019-05-06T14:25:44.655Z,6.00
2019-05-06T14:26:44.978Z,5.60
2019-05-06T14:27:44.612Z,5.40
2019-05-06T14:28:44.533Z,5.80
2019-05-06T14:29:44.608Z,5.80
2019-05-06T14:30:44.476Z,5.10
2019-05-06T14:31:44.420Z,6.00
2019-05-06T14:32:44.389Z,5.00
2019-05-06T14:33:44.338Z,5.60
2019-05-06T14:34:44.310Z,5.30
2019-05-06T14:35:44.276Z,5.50
2019-05-06T14:36:44.276Z,5.40
2019-05-06T14:37:44.307Z,5.30
2019-05-06T14:38:44.146Z,5.30
2019-05-06T14:39:53.403Z,5.60
2019-05-06T14:40:44.288Z,5.10
2019-05-06T14:41:44.854Z,5.20
2019-05-06T14:42:54.237Z,4.70
2019-05-06T14:43:55.853Z,4.80
2019-05-06T14:44:43.933Z,4.80
2019-05-06T14:45:43.887Z,4.70
2019-05-06T14:46:43.955Z,4.30
2019-05-06T14:47:43.885Z,4.80
2019-05-06T14:48:43.840Z,4.70
2019-05-06T14:49:43.737Z,4.60
2019-05-06T14:50:48.424Z,4.90
2019-05-06T14:51:43.656Z,4.40
2019-05-06T14:52:43.757Z,4.50
2019-05-06T14:53:43.989Z,4.60
2019-05-06T14:54:43.554Z,5.00
2019-05-06T14:55:43.778Z,5.20
2019-05-06T14:56:43.500Z,5.20
2019-05-06T14:57:43.439Z,4.50
2019-05-06T14:58:43.460Z,4.60
2019-05-06T14:59:43.383Z,4.50
2019-05-06T15:00:44.313Z,4.70
2019-05-06T15:01:45.468Z,4.70
2019-05-06T15:02:43.400Z,4.70
2019-05-06T15:03:43.196Z,4.60
2019-05-06T15:04:43.609Z,4.60
2019-05-06T15:05:43.123Z,4.60
2019-05-06T15:06:43.085Z,4.50
2019-05-06T15:07:43.041Z,4.80
2019-05-06T15:09:55.782Z,4.60
2019-05-06T15:10:43.017Z,4.70
2019-05-06T15:11:43.436Z,4.70
2019-05-06T15:12:42.871Z,4.70
2019-05-06T15:13:42.860Z,4.50
2019-05-06T15:14:42.783Z,4.70
2019-05-06T15:15:43.061Z,4.90
2019-05-06T15:16:42.720Z,5.00
2019-05-06T15:17:43.173Z,5.20
2019-05-06T15:18:42.625Z,5.60
2019-05-06T15:19:42.838Z,5.90
2019-05-06T15:20:42.636Z,5.10
2019-05-06T15:21:42.901Z,4.70
2019-05-06T15:22:42.474Z,4.50
2019-05-06T15:36:32.745Z,3.90
2019-05-06T15:37:26.492Z,4.40
2019-05-06T15:38:26.447Z,4.60
2019-05-06T15:39:26.458Z,4.70
2019-05-06T15:40:32.376Z,5.10
2019-05-06T15:41:26.326Z,5.00
2019-05-06T15:42:26.287Z,4.80
2019-05-06T15:43:26.241Z,5.20
2019-05-06T15:44:26.198Z,5.40
2019-05-06T15:45:26.219Z,5.00
2019-05-06T15:46:26.139Z,5.10
2019-05-06T15:47:26.083Z,4.90
2019-05-06T15:48:26.052Z,5.10
2019-05-06T15:49:26.010Z,5.00
2019-05-06T15:50:25.967Z,5.40
2019-05-06T15:51:25.928Z,5.00
2019-05-06T15:52:25.883Z,4.90
2019-05-06T15:53:25.855Z,5.30
2019-05-06T15:54:25.805Z,5.70
2019-05-06T15:55:25.850Z,5.20
2019-05-06T15:56:25.737Z,5.10
2019-05-06T15:57:25.822Z,5.60
2019-05-06T15:58:25.646Z,5.80
2019-05-06T15:59:25.614Z,6.00
2019-05-06T16:00:25.578Z,5.20
2019-05-06T16:01:25.529Z,5.60
2019-05-06T16:02:25.553Z,5.10
2019-05-06T16:03:25.460Z,5.00
2019-05-06T16:04:25.420Z,5.90
2019-05-06T16:05:26.599Z,6.20
2019-05-06T16:06:25.338Z,5.90
2019-05-06T16:07:26.190Z,6.80
2019-05-06T16:08:25.526Z,6.80